CheckWX is a tool to help pilots better visualize weather data.  It is not intended as a substitute for an official pre-flight weather briefing.

23:29:26 UTC

CYXC METAR
Cranbrook Airport
Cranbrook, Canada
Current

29 mins ago

CYXC 162300Z 18012KT 25SM FEW050 SCT069 BKN200 05/M00 A3021 RMK SC2AC2CI2 SLP260
Observed
Nov-16 @ 23:00 UTC
Wind
  • 180° at 12 KTS
Visibility
25 SM
Flight Rules
VFR
Cloud Levels
  • Few at 5,000' AGL
  • Scattered at 6,900' AGL
  • Broken at 20,000' AGL
Temperature
C / 41°F
Dewpoint
C / 32°F
Humidity
70%
Altimeter
30.21" Hg
Pressure
1023.02 hPa
Previous

1 hour ago

CYXC 162200Z 17011G19KT 25SM FEW008 FEW050 SCT150 BKN230 06/M00 A3021 RMK SF1SC2AC2CI4 SF TR SLP260
Observed
Nov-16 @ 22:00 UTC
Wind
  • 170° at 11 KTS
  • Gusting to 19 KTS
Visibility
25 SM
Flight Rules
VFR
Cloud Levels
  • Few at 800' AGL
  • Few at 5,000' AGL
  • Scattered at 15,000' AGL
  • Broken at 23,000' AGL
Temperature
C / 43°F
Dewpoint
C / 32°F
Humidity
66%
Altimeter
30.21" Hg
Pressure
1023.02 hPa
Previous

2 hours ago

CYXC 162100Z 17008KT 25SM FEW006 FEW040 SCT150 BKN230 05/M00 A3023 RMK SF1SC1AC2CI4 SF TR SLP267
Observed
Nov-16 @ 21:00 UTC
Wind
  • 170° at 8 KTS
Visibility
25 SM
Flight Rules
VFR
Cloud Levels
  • Few at 600' AGL
  • Few at 4,000' AGL
  • Scattered at 15,000' AGL
  • Broken at 23,000' AGL
Temperature
C / 41°F
Dewpoint
C / 32°F
Humidity
70%
Altimeter
30.23" Hg
Pressure
1023.72 hPa